Sapelo Island, GA (31327)

4:40 PM EDT on July 07, 2015 (GMT -0400)
NERRS | | Change Station
CLOSE
Current Station
Personal Weather Station
Location: Sapelo Island, GA
Elevation: 2 ft
Nearby Weather Stations

Elev 2 ft 31.42 °N, 81.29 °W | Updated 40 minutes ago

Partly Cloudy
Partly Cloudy
89 °F
Feels Like 95 °F
N
11
Wind Variable Wind from SSE
Gusts 0.0 mph

Today
High -- | Low -- °F
--% Chance of Precip.
Yesterday
High -- | Low -- °F
Precip. -- in
6:26 AM 8:33 PM
Waning Gibbous, 61% visible
Pressure 30.14 in
Visibility 10.0 miles
Clouds Mostly Cloudy 3600 ft
Overcast 4500 ft
Heat Index 95 °F
Dew Point 71 °F
Humidity 56%
Rainfall in
Snow Depth Not available.
UV 2 out of 12
Pollen 3.00 out of 12
Air Quality Not available.
Flu Activity Not available.
METAR KBQK 072035Z AUTO 22004KT 10SM TS BKN036 OVC045 28/22 A3014 RMK AO1 LTG DSNT SW THRU NE

More Conditions Fewer Conditions

Pressure 30.14 in
Visibility 10.0 miles
Clouds Mostly Cloudy 3600 ft
Overcast 4500 ft
Heat Index 95 °F
Dew Point 71 °F
Humidity 56%
Rainfall in
Snow Depth Not available.
UV 2 out of 12
Pollen 3.00 out of 12
Air Quality Not available.
Flu Activity Not available.
METAR KBQK 072035Z AUTO 22004KT 10SM TS BKN036 OVC045 28/22 A3014 RMK AO1 LTG DSNT SW THRU NE

More Conditions Fewer Conditions

10-Day Weather Forecast

×

Almanac

Astronomy

Jul. 07, 2015 Rise Set
Actual Time
Civil Twilight
Nautical Twilight
Astronomical Twilight
Moon
Length of Visible Light
Length of Day
Tomorrow will be .
, % of the Moon is Illuminated

Today's Extremes

State Highs State Lows

Community

WunderPhotos

Upload Photos

1,835,890 photos uploaded!

WunderBlogs® & News

Nearby

Air Quality

  Air Quality AQ Index Pollutant
Not available.

Snow Depth

Station Depth Elevation

Earthquake Activity

City Distance Mag. Time & Date
Minimum magnitude displayed is 2.5.

Coastal Water Temperatures

Place Temperature

Stations

Nearby Weather Stations

Station Location Temp. Windchill Dew Point Humidity Wind Precip. Elev Updated Type